createdAt,value
2022-10-25T00:01:44.793Z,0.80
2022-10-25T00:04:12.455Z,0.80
2022-10-25T00:06:39.991Z,0.97
2022-10-25T00:09:08.130Z,0.83
2022-10-25T00:11:35.574Z,0.90
2022-10-25T00:14:05.311Z,0.90
2022-10-25T00:16:34.227Z,1.07
2022-10-25T00:19:01.572Z,0.80
2022-10-25T00:21:28.931Z,0.90
2022-10-25T00:23:56.409Z,1.00
2022-10-25T00:26:23.840Z,0.73
2022-10-25T00:28:58.556Z,0.80
2022-10-25T00:31:25.924Z,0.70
2022-10-25T00:33:53.422Z,1.13
2022-10-25T00:36:22.608Z,0.90
2022-10-25T00:38:52.602Z,1.13
2022-10-25T00:41:21.851Z,0.77
2022-10-25T00:43:53.657Z,0.93
2022-10-25T00:46:21.400Z,1.00
2022-10-25T00:48:48.740Z,0.90
2022-10-25T00:51:16.200Z,1.10
2022-10-25T00:53:43.785Z,1.20
2022-10-25T00:56:15.989Z,0.67
2022-10-25T00:58:48.570Z,0.73
2022-10-25T01:01:16.370Z,1.27
2022-10-25T01:03:45.410Z,0.80
2022-10-25T01:06:24.292Z,1.10
2022-10-25T01:08:52.752Z,1.10
2022-10-25T01:11:20.775Z,1.00
2022-10-25T01:13:49.199Z,0.80
2022-10-25T01:16:26.128Z,0.70
2022-10-25T01:19:02.605Z,0.57
2022-10-25T01:21:41.443Z,0.70
2022-10-25T01:24:13.147Z,0.80
2022-10-25T01:26:53.384Z,1.00
2022-10-25T01:29:37.010Z,0.80
2022-10-25T01:32:09.970Z,0.90
2022-10-25T01:34:41.956Z,0.77
2022-10-25T01:37:18.837Z,1.07
2022-10-25T01:39:51.588Z,0.90
2022-10-25T01:42:31.254Z,1.00
2022-10-25T01:45:16.609Z,0.77
2022-10-25T01:47:59.323Z,0.80
2022-10-25T01:50:31.949Z,1.00
2022-10-25T01:52:59.374Z,0.90
2022-10-25T01:55:37.921Z,1.00
2022-10-25T01:58:14.691Z,0.80
2022-10-25T02:00:51.446Z,0.80
2022-10-25T02:03:18.791Z,0.80
2022-10-25T02:05:54.879Z,0.80
2022-10-25T02:08:30.468Z,0.80
2022-10-25T02:11:18.951Z,1.00
2022-10-25T02:14:01.651Z,1.50
2022-10-25T02:16:30.055Z,0.70
2022-10-25T02:19:03.518Z,0.80
2022-10-25T02:21:33.522Z,0.90
2022-10-25T02:24:04.268Z,0.90
2022-10-25T02:26:31.859Z,0.80
2022-10-25T02:28:59.193Z,0.70
2022-10-25T02:31:26.651Z,1.20
2022-10-25T02:33:53.971Z,1.20
2022-10-25T02:36:24.968Z,0.70
2022-10-25T02:38:53.057Z,0.90
2022-10-25T02:41:21.036Z,0.80
2022-10-25T02:43:48.891Z,0.80
2022-10-25T02:46:20.477Z,1.00
2022-10-25T02:48:48.313Z,0.87
2022-10-25T02:51:15.824Z,0.70
2022-10-25T02:53:43.438Z,0.80
2022-10-25T02:56:12.540Z,0.73
2022-10-25T02:58:40.753Z,0.60
2022-10-25T03:01:08.488Z,0.80
2022-10-25T03:03:36.597Z,0.73
2022-10-25T03:06:04.384Z,0.90
2022-10-25T03:08:32.218Z,0.80
2022-10-25T03:10:59.744Z,0.80
2022-10-25T03:13:27.267Z,0.80
2022-10-25T03:15:54.614Z,1.40
2022-10-25T03:18:22.498Z,0.70
2022-10-25T03:20:50.168Z,0.80
2022-10-25T03:23:18.096Z,1.10
2022-10-25T03:25:46.157Z,0.80
2022-10-25T03:28:14.582Z,1.07
2022-10-25T03:30:43.584Z,0.87
2022-10-25T03:33:11.084Z,0.80
2022-10-25T03:35:38.599Z,1.00
2022-10-25T03:38:06.288Z,0.93
2022-10-25T03:40:33.656Z,1.30
2022-10-25T03:43:01.006Z,0.87
2022-10-25T03:45:28.479Z,0.80
2022-10-25T03:47:55.835Z,0.90
2022-10-25T03:50:23.188Z,0.90
2022-10-25T03:52:50.542Z,0.77
2022-10-25T03:55:18.133Z,0.80
2022-10-25T03:57:45.848Z,0.87
2022-10-25T04:00:13.739Z,0.97
2022-10-25T04:02:41.057Z,0.60
2022-10-25T04:05:08.572Z,0.87
2022-10-25T04:07:36.023Z,0.60
2022-10-25T04:10:03.655Z,0.80
2022-10-25T04:12:31.682Z,0.93
2022-10-25T04:14:58.966Z,0.60
2022-10-25T04:17:26.314Z,0.80
2022-10-25T04:19:53.575Z,0.80
2022-10-25T04:22:21.014Z,0.70
2022-10-25T04:24:48.611Z,0.73
2022-10-25T04:27:15.978Z,0.60
2022-10-25T04:29:43.354Z,0.80
2022-10-25T04:32:10.841Z,0.90
2022-10-25T04:34:38.205Z,0.70
2022-10-25T04:37:05.559Z,0.70
2022-10-25T04:39:32.923Z,0.73
2022-10-25T04:42:00.411Z,0.60
2022-10-25T04:44:27.964Z,0.60
2022-10-25T04:46:55.309Z,0.50
2022-10-25T04:49:22.761Z,1.03
2022-10-25T04:54:17.489Z,0.80
2022-10-25T04:56:44.863Z,0.60
2022-10-25T04:59:12.346Z,0.80
2022-10-25T05:01:39.883Z,0.90
2022-10-25T05:04:07.517Z,0.60
2022-10-25T05:06:34.896Z,0.83
2022-10-25T05:09:02.241Z,0.70
2022-10-25T05:11:29.621Z,0.83
2022-10-25T05:13:57.093Z,0.87
2022-10-25T05:16:25.773Z,0.90
2022-10-25T05:18:57.271Z,1.10
2022-10-25T05:21:28.660Z,0.60
2022-10-25T05:24:01.405Z,0.87
2022-10-25T05:26:30.264Z,0.70
2022-10-25T05:28:58.038Z,1.17
2022-10-25T05:31:26.749Z,0.90
2022-10-25T05:33:55.632Z,0.80
2022-10-25T05:36:23.096Z,0.80
2022-10-25T05:38:50.576Z,0.70
2022-10-25T05:41:18.662Z,0.70
2022-10-25T05:43:46.523Z,0.77
2022-10-25T05:46:15.274Z,0.73
2022-10-25T05:48:48.145Z,0.60
2022-10-25T05:51:33.247Z,0.70
2022-10-25T05:54:03.066Z,0.70
2022-10-25T05:56:31.168Z,0.80
2022-10-25T05:58:58.593Z,1.00
2022-10-25T06:01:27.058Z,0.87
2022-10-25T06:03:55.530Z,0.90
2022-10-25T06:06:23.594Z,1.23
2022-10-25T06:08:57.810Z,1.00
2022-10-25T06:11:28.567Z,0.80
2022-10-25T06:13:56.105Z,0.60
2022-10-25T06:16:23.802Z,1.80
2022-10-25T06:18:54.753Z,0.80
2022-10-25T06:21:24.081Z,1.00
2022-10-25T06:23:51.804Z,0.83
2022-10-25T06:26:21.323Z,1.10
2022-10-25T06:28:49.264Z,0.97
2022-10-25T06:31:18.375Z,0.97
2022-10-25T06:33:46.451Z,0.80
2022-10-25T06:36:25.098Z,0.80
2022-10-25T06:38:52.642Z,0.90
2022-10-25T06:41:23.377Z,0.80
2022-10-25T06:43:51.302Z,1.10
2022-10-25T06:49:28.916Z,0.87
2022-10-25T06:51:59.939Z,1.23
2022-10-25T06:54:27.431Z,0.90
2022-10-25T06:56:56.850Z,0.83
2022-10-25T06:59:24.396Z,0.90
2022-10-25T07:01:52.506Z,1.00
2022-10-25T07:04:23.226Z,0.93
2022-10-25T07:06:52.977Z,1.10
2022-10-25T07:09:25.470Z,0.80
2022-10-25T07:11:53.514Z,1.37
2022-10-25T07:14:21.451Z,1.43
2022-10-25T07:16:52.511Z,1.33
2022-10-25T07:19:36.194Z,1.47
2022-10-25T07:22:05.737Z,0.93
2022-10-25T07:24:33.345Z,1.10
2022-10-25T07:27:00.927Z,1.30
2022-10-25T07:29:28.303Z,1.10
2022-10-25T07:31:55.999Z,1.47
2022-10-25T07:34:23.350Z,1.20
2022-10-25T07:36:50.875Z,1.40
2022-10-25T07:39:18.309Z,1.27
2022-10-25T07:41:45.975Z,1.10
2022-10-25T07:44:17.531Z,1.20
2022-10-25T07:46:46.952Z,1.47
2022-10-25T07:49:14.653Z,1.20
2022-10-25T07:51:42.193Z,1.37
2022-10-25T07:54:09.864Z,1.00
2022-10-25T07:56:37.400Z,1.10
2022-10-25T07:59:04.873Z,1.00
2022-10-25T08:01:32.388Z,1.27
2022-10-25T08:03:59.849Z,1.40
2022-10-25T08:06:27.633Z,1.30
2022-10-25T08:08:55.169Z,1.30
2022-10-25T08:11:22.664Z,1.10
2022-10-25T08:13:53.656Z,1.52
2022-10-25T08:16:21.764Z,1.20
2022-10-25T08:18:49.214Z,1.27
2022-10-25T08:21:21.910Z,1.30
2022-10-25T08:23:50.659Z,1.10
2022-10-25T08:26:18.215Z,1.00
2022-10-25T08:28:45.761Z,1.10
2022-10-25T08:31:13.131Z,1.00
2022-10-25T08:33:45.222Z,1.17
2022-10-25T08:36:14.925Z,1.03
2022-10-25T08:38:42.452Z,1.20
2022-10-25T08:41:18.593Z,1.37
2022-10-25T08:43:52.231Z,1.40
2022-10-25T08:46:23.031Z,1.40
2022-10-25T08:48:54.743Z,1.47
2022-10-25T08:51:30.204Z,1.50
2022-10-25T08:54:06.477Z,1.43
2022-10-25T08:56:37.192Z,1.40
2022-10-25T08:59:10.725Z,1.33
2022-10-25T09:01:45.675Z,1.30
2022-10-25T09:04:13.322Z,1.20
2022-10-25T09:06:49.989Z,1.27
2022-10-25T09:09:17.678Z,1.20
2022-10-25T09:11:48.317Z,1.20
2022-10-25T09:14:28.285Z,1.13
2022-10-25T09:17:04.897Z,1.60
2022-10-25T09:19:36.668Z,1.00
2022-10-25T09:22:11.748Z,1.10
2022-10-25T09:24:51.843Z,1.40
2022-10-25T09:27:24.507Z,1.50
2022-10-25T09:29:56.176Z,1.13
2022-10-25T09:32:28.657Z,1.50
2022-10-25T09:34:56.481Z,1.07
2022-10-25T09:37:42.149Z,1.20
2022-10-25T09:40:19.751Z,1.20
2022-10-25T09:42:50.295Z,1.60
2022-10-25T09:45:20.506Z,1.40
2022-10-25T09:48:20.711Z,1.20
2022-10-25T09:50:56.041Z,1.47
2022-10-25T09:53:24.218Z,1.50
2022-10-25T09:55:53.090Z,1.70
2022-10-25T09:58:22.330Z,1.90
2022-10-25T10:00:51.179Z,1.40
2022-10-25T10:03:19.126Z,1.30
2022-10-25T10:05:57.555Z,1.20
2022-10-25T10:08:25.723Z,1.43
2022-10-25T10:10:54.212Z,1.53
2022-10-25T10:13:23.729Z,1.40
2022-10-25T10:15:51.216Z,1.50
2022-10-25T10:18:32.279Z,1.47
2022-10-25T10:21:14.472Z,1.73
2022-10-25T10:23:47.855Z,1.80
2022-10-25T10:26:24.766Z,1.90
2022-10-25T10:28:55.459Z,2.03
2022-10-25T10:31:24.651Z,1.70
2022-10-25T10:33:52.838Z,1.70
2022-10-25T10:36:31.345Z,1.90
2022-10-25T10:39:19.154Z,1.70
2022-10-25T10:42:03.145Z,2.00
2022-10-25T10:44:34.617Z,1.57
2022-10-25T10:47:11.631Z,2.00
2022-10-25T10:49:41.506Z,1.87
2022-10-25T10:52:44.290Z,1.77
2022-10-25T10:55:19.666Z,1.60
2022-10-25T10:57:48.178Z,1.87
2022-10-25T11:00:32.877Z,1.83
2022-10-25T11:03:00.843Z,2.23
2022-10-25T11:05:34.321Z,1.57
2022-10-25T11:08:07.826Z,1.73
2022-10-25T11:10:38.317Z,1.70
2022-10-25T11:13:10.444Z,1.70
2022-10-25T11:15:50.596Z,1.23
2022-10-25T11:18:19.941Z,1.80
2022-10-25T11:21:06.954Z,1.47
2022-10-25T11:23:43.701Z,1.47
2022-10-25T11:26:21.139Z,1.70
2022-10-25T11:29:10.641Z,1.87
2022-10-25T11:31:56.253Z,1.87
2022-10-25T11:34:24.556Z,1.60
2022-10-25T11:37:09.014Z,1.63
2022-10-25T11:39:48.693Z,1.43
2022-10-25T11:42:16.578Z,1.50
2022-10-25T11:45:02.424Z,1.50
2022-10-25T11:47:43.312Z,1.37
2022-10-25T11:50:33.522Z,1.60
2022-10-25T11:53:06.408Z,1.40
2022-10-25T11:55:36.952Z,1.47
2022-10-25T11:58:13.653Z,1.53
2022-10-25T12:00:47.276Z,1.40
2022-10-25T12:03:15.777Z,1.30
2022-10-25T12:05:47.720Z,1.60
2022-10-25T12:08:39.056Z,1.43
2022-10-25T12:11:08.318Z,1.60
2022-10-25T12:13:46.808Z,1.57
2022-10-25T12:16:16.006Z,1.33
2022-10-25T12:18:48.166Z,1.43
2022-10-25T12:21:27.220Z,1.40
2022-10-25T12:23:55.307Z,1.60
2022-10-25T12:26:26.348Z,1.27
2022-10-25T12:28:53.915Z,1.33
2022-10-25T12:31:24.519Z,1.20
2022-10-25T12:34:12.798Z,1.27
2022-10-25T12:36:42.587Z,1.10
2022-10-25T12:39:18.981Z,1.00
2022-10-25T12:41:49.684Z,1.53
2022-10-25T12:44:26.268Z,1.10
2022-10-25T12:47:00.524Z,1.27
2022-10-25T12:49:40.140Z,1.30
2022-10-25T12:52:22.643Z,1.10
2022-10-25T12:54:59.125Z,1.30
2022-10-25T12:57:26.429Z,1.27
2022-10-25T13:00:10.324Z,1.00
2022-10-25T13:03:01.001Z,0.97
2022-10-25T13:05:28.794Z,1.10
2022-10-25T13:07:57.797Z,1.00
2022-10-25T13:13:03.796Z,1.00
2022-10-25T13:15:45.480Z,1.73
2022-10-25T13:18:27.443Z,1.37
2022-10-25T13:20:55.529Z,1.10
2022-10-25T13:23:38.081Z,1.13
2022-10-25T13:26:08.299Z,1.30
2022-10-25T13:28:47.108Z,1.17
2022-10-25T13:31:33.342Z,1.10
2022-10-25T13:34:13.112Z,0.87
2022-10-25T13:37:03.972Z,1.20
2022-10-25T13:39:33.521Z,1.30
2022-10-25T13:42:04.010Z,1.30
2022-10-25T13:44:31.787Z,0.93
2022-10-25T13:46:59.411Z,1.00
2022-10-25T13:49:34.773Z,0.90
2022-10-25T13:52:22.368Z,1.03
2022-10-25T13:54:51.961Z,1.10
2022-10-25T13:57:41.118Z,1.10
2022-10-25T14:00:12.816Z,1.20
2022-10-25T14:02:59.039Z,1.10
2022-10-25T14:05:48.477Z,1.00
2022-10-25T14:08:22.479Z,1.20
2022-10-25T14:10:50.925Z,0.90
2022-10-25T14:13:26.583Z,0.87
2022-10-25T14:15:57.832Z,1.20
2022-10-25T14:18:27.207Z,0.90
2022-10-25T14:20:56.456Z,1.00
2022-10-25T14:23:29.911Z,1.00
2022-10-25T14:26:00.530Z,1.10
2022-10-25T14:28:28.057Z,0.90
2022-10-25T14:30:59.468Z,0.87
2022-10-25T14:33:40.837Z,1.00
2022-10-25T14:36:22.307Z,0.87
2022-10-25T14:38:51.214Z,0.80
2022-10-25T14:41:23.248Z,0.97
2022-10-25T14:43:50.656Z,0.93
2022-10-25T14:46:19.145Z,0.80
2022-10-25T14:48:47.701Z,1.10
2022-10-25T14:51:22.185Z,0.90
2022-10-25T14:54:01.051Z,0.90
2022-10-25T14:56:31.569Z,0.90
2022-10-25T14:59:02.167Z,1.30
2022-10-25T15:01:29.824Z,1.17
2022-10-25T15:04:01.546Z,1.00
2022-10-25T15:06:32.497Z,1.35
2022-10-25T15:09:37.092Z,1.00
2022-10-25T15:12:09.277Z,1.00
2022-10-25T15:14:36.944Z,1.00
2022-10-25T15:17:15.989Z,1.13
2022-10-25T15:20:04.417Z,1.00
2022-10-25T15:22:33.145Z,0.83
2022-10-25T15:25:01.628Z,1.10
2022-10-25T15:27:32.234Z,0.80
2022-10-25T15:29:59.749Z,0.93
2022-10-25T15:32:29.324Z,0.90
2022-10-25T15:35:00.222Z,0.83
2022-10-25T15:37:29.348Z,0.77
2022-10-25T15:39:58.850Z,0.90
2022-10-25T15:42:26.994Z,1.00
2022-10-25T15:44:54.384Z,1.10
2022-10-25T15:47:21.846Z,0.90
2022-10-25T15:49:52.023Z,1.00
2022-10-25T15:52:19.607Z,1.00
2022-10-25T15:54:47.084Z,0.93
2022-10-25T15:57:14.413Z,1.00
2022-10-25T15:59:41.768Z,0.80
2022-10-25T16:02:18.077Z,1.00
2022-10-25T16:04:45.823Z,0.87
2022-10-25T16:07:13.764Z,1.00
2022-10-25T16:09:42.558Z,1.00
2022-10-25T16:12:12.576Z,1.57
2022-10-25T16:14:39.966Z,1.00
2022-10-25T16:17:07.283Z,0.90
2022-10-25T16:19:34.764Z,1.03
2022-10-25T16:22:02.123Z,0.80
2022-10-25T16:24:31.919Z,1.17
2022-10-25T16:27:01.242Z,0.90
2022-10-25T16:29:29.702Z,1.20
2022-10-25T16:32:00.141Z,1.00
2022-10-25T16:34:27.785Z,1.20
2022-10-25T16:36:55.968Z,0.87
2022-10-25T16:39:25.646Z,1.30
2022-10-25T16:41:55.110Z,1.03
2022-10-25T16:44:22.462Z,0.90
2022-10-25T16:46:49.915Z,1.30
2022-10-25T16:49:17.442Z,1.30
2022-10-25T16:51:45.709Z,1.53
2022-10-25T16:54:13.545Z,1.10
2022-10-25T16:56:42.692Z,1.07
2022-10-25T16:59:10.129Z,1.57
2022-10-25T17:01:38.982Z,1.10
2022-10-25T17:04:10.233Z,1.20
2022-10-25T17:06:42.027Z,1.17
2022-10-25T17:09:10.412Z,1.13
2022-10-25T17:11:37.793Z,1.47
2022-10-25T17:14:05.219Z,1.00
2022-10-25T17:16:33.430Z,1.10
2022-10-25T17:19:03.183Z,1.10
2022-10-25T17:21:31.619Z,0.83
2022-10-25T17:23:59.030Z,1.10
2022-10-25T17:26:26.402Z,1.20
2022-10-25T17:28:53.723Z,1.10
2022-10-25T17:31:20.963Z,1.67
2022-10-25T17:33:48.346Z,1.17
2022-10-25T17:36:17.325Z,1.20
2022-10-25T17:38:45.229Z,1.07
2022-10-25T17:41:13.178Z,0.87
2022-10-25T17:43:41.045Z,1.00
2022-10-25T17:46:09.920Z,1.20
2022-10-25T17:48:37.507Z,1.20
2022-10-25T17:51:06.503Z,1.00
2022-10-25T17:53:34.249Z,1.03
2022-10-25T17:56:14.861Z,0.97
2022-10-25T17:58:42.917Z,1.10
2022-10-25T18:01:10.986Z,1.10
2022-10-25T18:03:38.855Z,1.30
2022-10-25T18:06:07.795Z,1.33
2022-10-25T18:08:36.665Z,1.43
2022-10-25T18:11:11.110Z,1.67
2022-10-25T18:13:40.680Z,1.20
2022-10-25T18:16:08.771Z,1.30
2022-10-25T18:18:36.431Z,1.10
2022-10-25T18:21:04.723Z,1.10
2022-10-25T18:23:32.070Z,1.10
2022-10-25T18:25:59.585Z,1.20
2022-10-25T18:28:27.111Z,1.43
2022-10-25T18:31:05.288Z,1.47
2022-10-25T18:33:33.487Z,1.20
2022-10-25T18:36:02.099Z,1.73
2022-10-25T18:38:29.472Z,1.70
2022-10-25T18:40:56.889Z,1.20
2022-10-25T18:43:25.363Z,1.20
2022-10-25T18:45:59.551Z,1.40
2022-10-25T18:48:27.364Z,1.60
2022-10-25T18:50:54.909Z,1.67
2022-10-25T18:53:22.629Z,1.33
2022-10-25T18:55:53.907Z,1.40
2022-10-25T18:58:21.417Z,1.50
2022-10-25T19:00:48.941Z,1.77
2022-10-25T19:03:17.052Z,1.70
2022-10-25T19:05:44.641Z,1.63
2022-10-25T19:08:12.682Z,1.50
2022-10-25T19:10:41.027Z,1.33
2022-10-25T19:13:18.865Z,1.30
2022-10-25T19:15:46.940Z,1.40
2022-10-25T19:18:15.157Z,1.47
2022-10-25T19:20:46.274Z,1.67
2022-10-25T19:23:14.136Z,1.83
2022-10-25T19:25:41.498Z,1.63
2022-10-25T19:28:09.388Z,1.33
2022-10-25T19:30:40.441Z,1.63
2022-10-25T19:33:07.997Z,1.57
2022-10-25T19:35:35.451Z,1.40
2022-10-25T19:38:03.091Z,1.50
2022-10-25T19:40:30.566Z,1.60
2022-10-25T19:42:58.013Z,1.87
2022-10-25T19:45:25.783Z,1.30
2022-10-25T19:47:56.070Z,1.70
2022-10-25T19:50:24.038Z,1.80
2022-10-25T19:52:52.080Z,1.50
2022-10-25T19:55:19.810Z,1.43
2022-10-25T19:57:47.620Z,1.80
2022-10-25T20:00:18.219Z,1.43
2022-10-25T20:02:45.759Z,1.40
2022-10-25T20:05:13.647Z,1.87
2022-10-25T20:07:41.108Z,1.50
2022-10-25T20:10:08.694Z,1.27
2022-10-25T20:12:36.119Z,1.37
2022-10-25T20:15:03.748Z,1.43
2022-10-25T20:17:31.369Z,1.50
2022-10-25T20:19:59.842Z,1.63
2022-10-25T20:22:27.259Z,1.57
2022-10-25T20:24:54.845Z,1.83
2022-10-25T20:27:22.195Z,1.87
2022-10-25T20:29:49.653Z,1.50
2022-10-25T20:32:17.041Z,1.57
2022-10-25T20:34:44.502Z,1.90
2022-10-25T20:37:12.032Z,1.43
2022-10-25T20:39:39.506Z,1.67
2022-10-25T20:42:06.932Z,1.83
2022-10-25T20:44:34.290Z,1.57
2022-10-25T20:47:01.760Z,1.43
2022-10-25T20:49:29.104Z,1.67
2022-10-25T20:51:56.574Z,1.70
2022-10-25T20:54:23.957Z,1.80
2022-10-25T20:56:51.313Z,1.90
2022-10-25T20:59:18.714Z,1.63
2022-10-25T21:01:46.183Z,1.70
2022-10-25T21:04:16.172Z,1.50
2022-10-25T21:06:46.046Z,1.30
2022-10-25T21:09:13.426Z,1.53
2022-10-25T21:11:40.929Z,1.40
2022-10-25T21:14:11.619Z,1.57
2022-10-25T21:16:39.106Z,1.30
2022-10-25T21:19:06.771Z,1.63
2022-10-25T21:21:34.276Z,1.27
2022-10-25T21:24:02.902Z,1.30
2022-10-25T21:26:35.442Z,1.60
2022-10-25T21:29:05.060Z,1.50
2022-10-25T21:31:32.494Z,1.50
2022-10-25T21:34:01.082Z,1.50
2022-10-25T21:36:28.587Z,1.37
2022-10-25T21:38:56.257Z,1.53
2022-10-25T21:41:27.267Z,1.40
2022-10-25T21:43:55.687Z,1.63
2022-10-25T21:46:24.163Z,1.30
2022-10-25T21:48:51.727Z,1.47
2022-10-25T21:51:19.574Z,1.40
2022-10-25T21:53:50.363Z,1.50
2022-10-25T21:56:18.570Z,1.57
2022-10-25T21:58:47.215Z,1.40
2022-10-25T22:01:16.185Z,1.40
2022-10-25T22:03:43.962Z,1.90
2022-10-25T22:06:12.538Z,1.70
2022-10-25T22:08:40.198Z,1.43
2022-10-25T22:11:13.582Z,1.17
2022-10-25T22:13:41.275Z,1.40
2022-10-25T22:16:13.441Z,1.60
2022-10-25T22:18:40.877Z,1.50
2022-10-25T22:21:11.741Z,1.30
2022-10-25T22:23:39.718Z,1.63
2022-10-25T22:26:11.993Z,1.30
2022-10-25T22:28:41.054Z,1.37
2022-10-25T22:31:09.857Z,1.30
2022-10-25T22:33:37.780Z,1.37
2022-10-25T22:36:06.365Z,1.33
2022-10-25T22:38:34.084Z,1.40
2022-10-25T22:41:02.926Z,1.30
2022-10-25T22:43:30.772Z,1.53
2022-10-25T22:46:01.566Z,1.23
2022-10-25T22:48:32.597Z,1.27
2022-10-25T22:51:00.129Z,1.20
2022-10-25T22:53:27.796Z,1.40
2022-10-25T22:55:55.440Z,1.50
2022-10-25T22:58:23.178Z,1.40
2022-10-25T23:00:59.768Z,1.30
2022-10-25T23:03:31.753Z,1.20
2022-10-25T23:05:59.998Z,1.27
2022-10-25T23:08:27.925Z,1.40
2022-10-25T23:11:06.024Z,1.50
2022-10-25T23:13:34.422Z,1.60
2022-10-25T23:16:02.754Z,1.50
2022-10-25T23:18:30.403Z,1.67
2022-10-25T23:20:59.074Z,1.60
2022-10-25T23:23:27.223Z,1.30
2022-10-25T23:25:54.995Z,1.47
2022-10-25T23:28:22.854Z,1.60
2022-10-25T23:30:56.468Z,1.40
2022-10-25T23:33:34.769Z,1.53
2022-10-25T23:36:06.107Z,1.20
2022-10-25T23:38:33.925Z,1.60
2022-10-25T23:41:01.909Z,1.30
2022-10-25T23:43:40.301Z,1.30
2022-10-25T23:46:12.056Z,1.47
2022-10-25T23:48:40.170Z,1.57
2022-10-25T23:51:09.268Z,1.43
2022-10-25T23:53:40.753Z,1.50
2022-10-25T23:56:09.810Z,1.13
2022-10-25T23:58:38.659Z,1.40
